EDDS/STR METAR and TAF weather

Enter ICAO airport designator
Station Type Date Time Source
EDDS METAR 2021/05/14 04:50 UTC NOAA

EDDS 140450Z VRB02KT CAVOK 08/04 Q1009 NOSIG


Station Type Date Time Source
EDDS Decoded METAR 2021/05/14 04:50 UTC NOAA

Stuttgart-Echterdingen, Germany (EDDS) 48-41N 009-13E 391M
May 14, 2021 - 12:50 AM EDT / 2021.05.14 0450 UTC
Wind: Variable at 2 MPH (2 KT):0
Visibility: greater than 7 mile(s):0
Temperature: 46 F (8 C)
Dew Point: 39 F (4 C)
Relative Humidity: 75%
Pressure (altimeter): 29.80 in. Hg (1009 hPa)
ob: EDDS 140450Z VRB02KT CAVOK 08/04 Q1009 NOSIG
cycle: 5

Station Type Date Time Source
EDDS TAF 2021/05/13 18:27 UTC NOAA

TAF EDDS 131700Z 1318/1418 29007KT 9999 SCT030
BECMG 1318/1320 23004KT
BECMG 1409/1411 29008KT
TEMPO 1410/1418 SHRA BKN030CB PROB30
TEMPO 1410/1417 TSRA
BECMG 1417/1418 23004KT

Example: see airport list